sensor_id;sensor_type;location;lat;lon;timestamp;temperature;humidity
63277;DHT22;49403;51.046;13.780;2023-06-01T00:00:23;19.20;54.80
63277;DHT22;49403;51.046;13.780;2023-06-01T00:00:58;19.20;54.90
63277;DHT22;49403;51.046;13.780;2023-06-01T00:01:39;19.20;55.10
63277;DHT22;49403;51.046;13.780;2023-06-01T00:02:16;19.20;55.10
63277;DHT22;49403;51.046;13.780;2023-06-01T00:02:48;19.10;55.10
63277;DHT22;49403;51.046;13.780;2023-06-01T00:03:20;19.10;55.20
63277;DHT22;49403;51.046;13.780;2023-06-01T00:03:56;19.10;55.20
63277;DHT22;49403;51.046;13.780;2023-06-01T00:04:27;19.10;55.20
63277;DHT22;49403;51.046;13.780;2023-06-01T00:05:01;19.10;55.30
63277;DHT22;49403;51.046;13.780;2023-06-01T00:05:36;18.80;55.00
63277;DHT22;49403;51.046;13.780;2023-06-01T00:06:10;19.10;55.30
63277;DHT22;49403;51.046;13.780;2023-06-01T00:06:42;19.10;55.50
63277;DHT22;49403;51.046;13.780;2023-06-01T00:07:22;19.10;55.40
63277;DHT22;49403;51.046;13.780;2023-06-01T00:07:57;19.00;55.50
63277;DHT22;49403;51.046;13.780;2023-06-01T00:08:32;19.00;55.60
63277;DHT22;49403;51.046;13.780;2023-06-01T00:09:09;19.00;55.60
63277;DHT22;49403;51.046;13.780;2023-06-01T00:09:41;19.00;55.60
63277;DHT22;49403;51.046;13.780;2023-06-01T00:10:13;19.60;56.10
63277;DHT22;49403;51.046;13.780;2023-06-01T00:10:44;19.00;55.60
63277;DHT22;49403;51.046;13.780;2023-06-01T00:11:16;19.00;55.70
63277;DHT22;49403;51.046;13.780;2023-06-01T00:11:48;18.90;55.70
63277;DHT22;49403;51.046;13.780;2023-06-01T00:12:22;19.00;55.80
63277;DHT22;49403;51.046;13.780;2023-06-01T00:12:58;19.00;55.80
63277;DHT22;49403;51.046;13.780;2023-06-01T00:13:33;18.90;55.70
63277;DHT22;49403;51.046;13.780;2023-06-01T00:14:04;18.80;55.70
63277;DHT22;49403;51.046;13.780;2023-06-01T00:14:36;18.90;55.90
63277;DHT22;49403;51.046;13.780;2023-06-01T00:15:11;18.90;55.90
63277;DHT22;49403;51.046;13.780;2023-06-01T00:15:45;18.90;56.00
63277;DHT22;49403;51.046;13.780;2023-06-01T00:16:16;18.90;56.00
63277;DHT22;49403;51.046;13.780;2023-06-01T00:16:48;19.10;56.20
63277;DHT22;49403;51.046;13.780;2023-06-01T00:17:23;18.90;56.00
63277;DHT22;49403;51.046;13.780;2023-06-01T00:17:57;19.00;56.00
63277;DHT22;49403;51.046;13.780;2023-06-01T00:18:34;18.90;56.00
63277;DHT22;49403;51.046;13.780;2023-06-01T00:19:11;18.90;56.00
63277;DHT22;49403;51.046;13.780;2023-06-01T00:19:43;19.00;56.00
63277;DHT22;49403;51.046;13.780;2023-06-01T00:20:15;19.00;56.10
63277;DHT22;49403;51.046;13.780;2023-06-01T00:20:50;19.00;56.10
63277;DHT22;49403;51.046;13.780;2023-06-01T00:21:27;19.00;56.10
63277;DHT22;49403;51.046;13.780;2023-06-01T00:22:04;19.00;56.00
63277;DHT22;49403;51.046;13.780;2023-06-01T00:22:38;19.00;56.00
63277;DHT22;49403;51.046;13.780;2023-06-01T00:23:17;19.00;56.00
63277;DHT22;49403;51.046;13.780;2023-06-01T00:23:53;19.00;56.00
63277;DHT22;49403;51.046;13.780;2023-06-01T00:24:28;19.00;55.90
63277;DHT22;49403;51.046;13.780;2023-06-01T00:25:03;19.00;56.00
63277;DHT22;49403;51.046;13.780;2023-06-01T00:25:38;19.00;55.90
63277;DHT22;49403;51.046;13.780;2023-06-01T00:26:09;19.10;56.00
63277;DHT22;49403;51.046;13.780;2023-06-01T00:26:41;19.00;55.90
63277;DHT22;49403;51.046;13.780;2023-06-01T00:27:26;19.10;56.10
63277;DHT22;49403;51.046;13.780;2023-06-01T00:28:12;19.00;55.90
63277;DHT22;49403;51.046;13.780;2023-06-01T00:28:46;19.00;55.90
63277;DHT22;49403;51.046;13.780;2023-06-01T00:29:21;19.00;55.90
63277;DHT22;49403;51.046;13.780;2023-06-01T00:30:01;19.00;55.90
63277;DHT22;49403;51.046;13.780;2023-06-01T00:30:38;19.00;55.90
63277;DHT22;49403;51.046;13.780;2023-06-01T00:31:10;19.00;56.00
63277;DHT22;49403;51.046;13.780;2023-06-01T00:31:45;18.90;56.10
63277;DHT22;49403;51.046;13.780;2023-06-01T00:32:20;18.90;56.10
63277;DHT22;49403;51.046;13.780;2023-06-01T00:33:03;18.90;56.30
63277;DHT22;49403;51.046;13.780;2023-06-01T00:33:40;18.80;56.30
63277;DHT22;49403;51.046;13.780;2023-06-01T00:34:17;18.90;56.40
63277;DHT22;49403;51.046;13.780;2023-06-01T00:34:51;18.90;56.40
63277;DHT22;49403;51.046;13.780;2023-06-01T00:35:23;18.80;56.40
63277;DHT22;49403;51.046;13.780;2023-06-01T00:35:57;18.80;56.40
63277;DHT22;49403;51.046;13.780;2023-06-01T00:36:31;18.80;56.40
63277;DHT22;49403;51.046;13.780;2023-06-01T00:37:03;18.90;56.50
63277;DHT22;49403;51.046;13.780;2023-06-01T00:37:37;18.80;56.50
63277;DHT22;49403;51.046;13.780;2023-06-01T00:38:15;18.80;56.50
63277;DHT22;49403;51.046;13.780;2023-06-01T00:38:47;18.80;56.50
63277;DHT22;49403;51.046;13.780;2023-06-01T00:39:21;18.80;56.50
63277;DHT22;49403;51.046;13.780;2023-06-01T00:39:53;18.80;56.50
63277;DHT22;49403;51.046;13.780;2023-06-01T00:40:28;18.80;56.50
63277;DHT22;49403;51.046;13.780;2023-06-01T00:41:02;18.80;56.60
63277;DHT22;49403;51.046;13.780;2023-06-01T00:41:34;18.80;56.70
63277;DHT22;49403;51.046;13.780;2023-06-01T00:42:09;18.70;56.70
63277;DHT22;49403;51.046;13.780;2023-06-01T00:42:40;18.70;56.90
63277;DHT22;49403;51.046;13.780;2023-06-01T00:43:12;18.70;56.90
63277;DHT22;49403;51.046;13.780;2023-06-01T00:43:46;18.60;56.90
63277;DHT22;49403;51.046;13.780;2023-06-01T00:44:24;18.60;56.90
63277;DHT22;49403;51.046;13.780;2023-06-01T00:44:55;18.70;57.10
63277;DHT22;49403;51.046;13.780;2023-06-01T00:45:29;18.60;57.00
63277;DHT22;49403;51.046;13.780;2023-06-01T00:46:01;18.60;57.00
63277;DHT22;49403;51.046;13.780;2023-06-01T00:46:32;18.60;57.00
63277;DHT22;49403;51.046;13.780;2023-06-01T00:47:14;18.70;57.00
63277;DHT22;49403;51.046;13.780;2023-06-01T00:47:48;18.70;57.00
63277;DHT22;49403;51.046;13.780;2023-06-01T00:48:19;18.70;57.00
63277;DHT22;49403;51.046;13.780;2023-06-01T00:48:54;18.70;57.10
63277;DHT22;49403;51.046;13.780;2023-06-01T00:49:33;18.70;57.10
63277;DHT22;49403;51.046;13.780;2023-06-01T00:50:10;18.70;57.10
63277;DHT22;49403;51.046;13.780;2023-06-01T00:50:42;18.70;57.10
63277;DHT22;49403;51.046;13.780;2023-06-01T00:51:17;18.60;57.00
63277;DHT22;49403;51.046;13.780;2023-06-01T00:51:48;17.80;56.40
63277;DHT22;49403;51.046;13.780;2023-06-01T00:52:23;18.60;57.20
63277;DHT22;49403;51.046;13.780;2023-06-01T00:52:55;18.60;57.10
63277;DHT22;49403;51.046;13.780;2023-06-01T00:53:31;18.60;57.10
63277;DHT22;49403;51.046;13.780;2023-06-01T00:54:03;18.70;57.30
63277;DHT22;49403;51.046;13.780;2023-06-01T00:54:38;19.80;58.20
63277;DHT22;49403;51.046;13.780;2023-06-01T00:55:10;18.60;57.20
63277;DHT22;49403;51.046;13.780;2023-06-01T00:55:47;18.20;57.00
63277;DHT22;49403;51.046;13.780;2023-06-01T00:56:19;18.60;57.30
63277;DHT22;49403;51.046;13.780;2023-06-01T00:56:53;18.60;57.30
63277;DHT22;49403;51.046;13.780;2023-06-01T00:57:24;18.60;57.30
63277;DHT22;49403;51.046;13.780;2023-06-01T00:57:59;18.60;57.40
63277;DHT22;49403;51.046;13.780;2023-06-01T00:58:33;18.60;57.40
63277;DHT22;49403;51.046;13.780;2023-06-01T00:59:05;18.50;57.30
63277;DHT22;49403;51.046;13.780;2023-06-01T00:59:40;18.60;57.50
63277;DHT22;49403;51.046;13.780;2023-06-01T01:00:13;18.50;57.40
63277;DHT22;49403;51.046;13.780;2023-06-01T01:00:48;18.60;57.50
63277;DHT22;49403;51.046;13.780;2023-06-01T01:01:22;18.60;57.40
63277;DHT22;49403;51.046;13.780;2023-06-01T01:01:57;18.60;57.40
63277;DHT22;49403;51.046;13.780;2023-06-01T01:02:31;18.60;57.50
63277;DHT22;49403;51.046;13.780;2023-06-01T01:03:04;18.60;57.40
63277;DHT22;49403;51.046;13.780;2023-06-01T01:03:39;18.60;57.50
63277;DHT22;49403;51.046;13.780;2023-06-01T01:04:18;18.60;57.50
63277;DHT22;49403;51.046;13.780;2023-06-01T01:04:56;18.50;57.50
63277;DHT22;49403;51.046;13.780;2023-06-01T01:05:30;18.60;57.50
63277;DHT22;49403;51.046;13.780;2023-06-01T01:07:51;18.60;57.50
63277;DHT22;49403;51.046;13.780;2023-06-01T01:08:37;18.50;57.60
63277;DHT22;49403;51.046;13.780;2023-06-01T01:09:23;18.50;57.60
63277;DHT22;49403;51.046;13.780;2023-06-01T01:10:22;18.50;57.70
63277;DHT22;49403;51.046;13.780;2023-06-01T01:11:14;18.50;57.70
63277;DHT22;49403;51.046;13.780;2023-06-01T01:11:53;18.50;57.80
63277;DHT22;49403;51.046;13.780;2023-06-01T01:12:31;18.40;57.90
63277;DHT22;49403;51.046;13.780;2023-06-01T01:14:39;18.30;58.00
63277;DHT22;49403;51.046;13.780;2023-06-01T01:15:32;18.30;58.10
63277;DHT22;49403;51.046;13.780;2023-06-01T01:16:20;18.30;58.20
63277;DHT22;49403;51.046;13.780;2023-06-01T01:17:14;18.30;58.30
63277;DHT22;49403;51.046;13.780;2023-06-01T01:17:50;18.20;58.20
63277;DHT22;49403;51.046;13.780;2023-06-01T01:19:09;18.20;58.40
63277;DHT22;49403;51.046;13.780;2023-06-01T01:20:29;18.20;58.70
63277;DHT22;49403;51.046;13.780;2023-06-01T01:21:05;16.90;57.50
63277;DHT22;49403;51.046;13.780;2023-06-01T01:23:37;18.10;58.50
63277;DHT22;49403;51.046;13.780;2023-06-01T01:25:20;18.10;58.60
63277;DHT22;49403;51.046;13.780;2023-06-01T01:26:29;18.00;58.60
63277;DHT22;49403;51.046;13.780;2023-06-01T01:27:29;18.10;58.50
63277;DHT22;49403;51.046;13.780;2023-06-01T01:29:00;18.00;58.40
63277;DHT22;49403;51.046;13.780;2023-06-01T01:29:35;18.00;58.40
63277;DHT22;49403;51.046;13.780;2023-06-01T01:30:08;18.00;58.50
63277;DHT22;49403;51.046;13.780;2023-06-01T01:30:44;18.00;58.50
63277;DHT22;49403;51.046;13.780;2023-06-01T01:31:19;18.00;58.50
63277;DHT22;49403;51.046;13.780;2023-06-01T01:31:54;18.00;58.40
63277;DHT22;49403;51.046;13.780;2023-06-01T01:32:26;18.00;58.40
63277;DHT22;49403;51.046;13.780;2023-06-01T01:32:58;18.00;58.40
63277;DHT22;49403;51.046;13.780;2023-06-01T01:33:32;18.00;58.40
63277;DHT22;49403;51.046;13.780;2023-06-01T01:34:04;18.00;58.40
63277;DHT22;49403;51.046;13.780;2023-06-01T01:34:37;18.00;58.40
63277;DHT22;49403;51.046;13.780;2023-06-01T01:35:10;18.00;58.40
63277;DHT22;49403;51.046;13.780;2023-06-01T01:35:42;18.30;58.60
63277;DHT22;49403;51.046;13.780;2023-06-01T01:36:15;18.00;58.40
63277;DHT22;49403;51.046;13.780;2023-06-01T01:36:54;18.00;58.50
63277;DHT22;49403;51.046;13.780;2023-06-01T01:37:26;18.10;58.50
63277;DHT22;49403;51.046;13.780;2023-06-01T01:38:00;17.20;57.70
63277;DHT22;49403;51.046;13.780;2023-06-01T01:38:34;18.00;58.40
63277;DHT22;49403;51.046;13.780;2023-06-01T01:39:06;18.00;58.40
63277;DHT22;49403;51.046;13.780;2023-06-01T01:39:38;18.00;58.50
63277;DHT22;49403;51.046;13.780;2023-06-01T01:40:09;18.00;58.70
63277;DHT22;49403;51.046;13.780;2023-06-01T01:40:41;17.30;58.20
63277;DHT22;49403;51.046;13.780;2023-06-01T01:41:13;18.00;58.70
63277;DHT22;49403;51.046;13.780;2023-06-01T01:41:44;18.00;58.80
63277;DHT22;49403;51.046;13.780;2023-06-01T01:42:15;18.00;58.70
63277;DHT22;49403;51.046;13.780;2023-06-01T01:42:48;18.00;58.70
63277;DHT22;49403;51.046;13.780;2023-06-01T01:43:22;18.00;58.70
63277;DHT22;49403;51.046;13.780;2023-06-01T01:43:54;18.00;58.70
63277;DHT22;49403;51.046;13.780;2023-06-01T01:44:28;18.00;58.60
63277;DHT22;49403;51.046;13.780;2023-06-01T01:45:00;18.00;58.60
63277;DHT22;49403;51.046;13.780;2023-06-01T01:45:31;18.00;58.60
63277;DHT22;49403;51.046;13.780;2023-06-01T01:46:22;18.00;58.60
63277;DHT22;49403;51.046;13.780;2023-06-01T01:47:24;17.40;58.10
63277;DHT22;49403;51.046;13.780;2023-06-01T01:48:27;18.00;58.70
63277;DHT22;49403;51.046;13.780;2023-06-01T01:49:10;18.00;58.60
63277;DHT22;49403;51.046;13.780;2023-06-01T01:49:45;17.90;58.70
63277;DHT22;49403;51.046;13.780;2023-06-01T01:50:18;17.90;58.80
63277;DHT22;49403;51.046;13.780;2023-06-01T01:51:03;17.90;58.90
63277;DHT22;49403;51.046;13.780;2023-06-01T01:51:40;17.90;58.90
63277;DHT22;49403;51.046;13.780;2023-06-01T01:52:26;17.90;58.90
63277;DHT22;49403;51.046;13.780;2023-06-01T01:52:59;17.80;59.00
63277;DHT22;49403;51.046;13.780;2023-06-01T01:53:30;17.80;59.00
63277;DHT22;49403;51.046;13.780;2023-06-01T01:54:04;17.80;59.00
63277;DHT22;49403;51.046;13.780;2023-06-01T01:54:41;17.80;59.20
63277;DHT22;49403;51.046;13.780;2023-06-01T01:55:13;17.80;59.20
63277;DHT22;49403;51.046;13.780;2023-06-01T01:55:49;17.80;59.10
63277;DHT22;49403;51.046;13.780;2023-06-01T01:56:21;17.80;59.10
63277;DHT22;49403;51.046;13.780;2023-06-01T01:56:56;17.90;59.20
63277;DHT22;49403;51.046;13.780;2023-06-01T01:57:29;17.80;59.10
63277;DHT22;49403;51.046;13.780;2023-06-01T01:58:02;17.90;59.20
63277;DHT22;49403;51.046;13.780;2023-06-01T01:58:34;17.90;59.20
63277;DHT22;49403;51.046;13.780;2023-06-01T01:59:05;16.90;58.40
63277;DHT22;49403;51.046;13.780;2023-06-01T01:59:37;17.90;59.20
63277;DHT22;49403;51.046;13.780;2023-06-01T02:00:09;17.90;59.20
63277;DHT22;49403;51.046;13.780;2023-06-01T02:00:43;17.90;59.20
63277;DHT22;49403;51.046;13.780;2023-06-01T02:01:15;17.80;59.10
63277;DHT22;49403;51.046;13.780;2023-06-01T02:01:47;17.80;59.10
63277;DHT22;49403;51.046;13.780;2023-06-01T02:02:19;17.80;59.20
63277;DHT22;49403;51.046;13.780;2023-06-01T02:02:50;17.80;59.20
63277;DHT22;49403;51.046;13.780;2023-06-01T02:03:22;17.80;59.10
63277;DHT22;49403;51.046;13.780;2023-06-01T02:04:03;19.20;60.40
63277;DHT22;49403;51.046;13.780;2023-06-01T02:04:42;17.80;59.00
63277;DHT22;49403;51.046;13.780;2023-06-01T02:05:13;17.80;59.10
63277;DHT22;49403;51.046;13.780;2023-06-01T02:05:45;17.70;59.00
63277;DHT22;49403;51.046;13.780;2023-06-01T02:06:17;17.80;59.10
63277;DHT22;49403;51.046;13.780;2023-06-01T02:06:48;17.80;59.20
63277;DHT22;49403;51.046;13.780;2023-06-01T02:07:20;17.80;59.20
63277;DHT22;49403;51.046;13.780;2023-06-01T02:07:51;17.80;59.10
63277;DHT22;49403;51.046;13.780;2023-06-01T02:08:23;17.80;59.20
63277;DHT22;49403;51.046;13.780;2023-06-01T02:08:54;17.80;59.20
63277;DHT22;49403;51.046;13.780;2023-06-01T02:09:25;17.70;59.10
63277;DHT22;49403;51.046;13.780;2023-06-01T02:09:57;17.70;59.10
63277;DHT22;49403;51.046;13.780;2023-06-01T02:10:28;17.70;59.10
63277;DHT22;49403;51.046;13.780;2023-06-01T02:10:59;17.70;59.10
63277;DHT22;49403;51.046;13.780;2023-06-01T02:11:31;17.70;59.00
63277;DHT22;49403;51.046;13.780;2023-06-01T02:12:02;17.80;59.10
63277;DHT22;49403;51.046;13.780;2023-06-01T02:12:33;17.80;59.10
63277;DHT22;49403;51.046;13.780;2023-06-01T02:13:04;17.70;59.00
63277;DHT22;49403;51.046;13.780;2023-06-01T02:13:36;17.80;59.00
63277;DHT22;49403;51.046;13.780;2023-06-01T02:14:07;17.80;59.00
63277;DHT22;49403;51.046;13.780;2023-06-01T02:14:38;17.80;59.00
63277;DHT22;49403;51.046;13.780;2023-06-01T02:15:12;17.80;59.00
63277;DHT22;49403;51.046;13.780;2023-06-01T02:15:46;17.80;59.00
63277;DHT22;49403;51.046;13.780;2023-06-01T02:16:18;17.80;59.00
63277;DHT22;49403;51.046;13.780;2023-06-01T02:16:49;17.80;59.10
63277;DHT22;49403;51.046;13.780;2023-06-01T02:17:21;17.70;59.00
63277;DHT22;49403;51.046;13.780;2023-06-01T02:17:52;17.70;59.00
63277;DHT22;49403;51.046;13.780;2023-06-01T02:18:24;17.80;59.20
63277;DHT22;49403;51.046;13.780;2023-06-01T02:18:56;19.00;60.10
63277;DHT22;49403;51.046;13.780;2023-06-01T02:19:29;17.70;59.10
63277;DHT22;49403;51.046;13.780;2023-06-01T02:20:01;17.70;59.10
63277;DHT22;49403;51.046;13.780;2023-06-01T02:20:33;17.80;59.10
63277;DHT22;49403;51.046;13.780;2023-06-01T02:21:07;17.70;59.00
63277;DHT22;49403;51.046;13.780;2023-06-01T02:21:39;17.70;59.00
63277;DHT22;49403;51.046;13.780;2023-06-01T02:22:10;17.70;59.00
63277;DHT22;49403;51.046;13.780;2023-06-01T02:22:42;16.70;58.70
63277;DHT22;49403;51.046;13.780;2023-06-01T02:23:13;17.70;59.10
63277;DHT22;49403;51.046;13.780;2023-06-01T02:23:45;17.80;59.20
63277;DHT22;49403;51.046;13.780;2023-06-01T02:24:16;17.70;59.10
63277;DHT22;49403;51.046;13.780;2023-06-01T02:24:48;17.90;59.30
63277;DHT22;49403;51.046;13.780;2023-06-01T02:25:20;17.70;59.10
63277;DHT22;49403;51.046;13.780;2023-06-01T02:25:51;17.70;59.10
63277;DHT22;49403;51.046;13.780;2023-06-01T02:26:22;17.70;59.10
63277;DHT22;49403;51.046;13.780;2023-06-01T02:26:54;17.70;59.10
63277;DHT22;49403;51.046;13.780;2023-06-01T02:27:26;18.30;59.60
63277;DHT22;49403;51.046;13.780;2023-06-01T02:27:58;17.70;59.00
63277;DHT22;49403;51.046;13.780;2023-06-01T02:28:32;17.70;58.80
63277;DHT22;49403;51.046;13.780;2023-06-01T02:29:04;17.70;58.70
63277;DHT22;49403;51.046;13.780;2023-06-01T02:29:38;17.70;58.70
63277;DHT22;49403;51.046;13.780;2023-06-01T02:30:10;17.60;58.70
63277;DHT22;49403;51.046;13.780;2023-06-01T02:30:41;17.60;58.70
63277;DHT22;49403;51.046;13.780;2023-06-01T02:31:13;17.60;58.80
63277;DHT22;49403;51.046;13.780;2023-06-01T02:31:48;17.60;58.90
63277;DHT22;49403;51.046;13.780;2023-06-01T02:32:19;17.60;59.00
63277;DHT22;49403;51.046;13.780;2023-06-01T02:32:51;17.50;59.00
63277;DHT22;49403;51.046;13.780;2023-06-01T02:33:23;17.50;59.10
63277;DHT22;49403;51.046;13.780;2023-06-01T02:33:57;17.50;59.10
63277;DHT22;49403;51.046;13.780;2023-06-01T02:34:29;17.40;59.10
63277;DHT22;49403;51.046;13.780;2023-06-01T02:35:00;17.40;59.10
63277;DHT22;49403;51.046;13.780;2023-06-01T02:35:32;17.40;59.20
63277;DHT22;49403;51.046;13.780;2023-06-01T02:36:03;17.40;59.30
63277;DHT22;49403;51.046;13.780;2023-06-01T02:36:34;17.40;59.30
63277;DHT22;49403;51.046;13.780;2023-06-01T02:37:05;17.50;59.40
63277;DHT22;49403;51.046;13.780;2023-06-01T02:37:37;17.40;59.30
63277;DHT22;49403;51.046;13.780;2023-06-01T02:38:11;17.40;59.20
63277;DHT22;49403;51.046;13.780;2023-06-01T02:38:42;17.40;59.30
63277;DHT22;49403;51.046;13.780;2023-06-01T02:39:14;17.00;59.00
63277;DHT22;49403;51.046;13.780;2023-06-01T02:39:45;17.40;59.40
63277;DHT22;49403;51.046;13.780;2023-06-01T02:40:20;17.40;59.40
63277;DHT22;49403;51.046;13.780;2023-06-01T02:40:51;17.40;59.30
63277;DHT22;49403;51.046;13.780;2023-06-01T02:41:23;17.40;59.40
63277;DHT22;49403;51.046;13.780;2023-06-01T02:41:54;17.40;59.40
63277;DHT22;49403;51.046;13.780;2023-06-01T02:42:25;17.60;59.60
63277;DHT22;49403;51.046;13.780;2023-06-01T02:42:56;17.30;59.40
63277;DHT22;49403;51.046;13.780;2023-06-01T02:43:28;17.30;59.50
63277;DHT22;49403;51.046;13.780;2023-06-01T02:43:59;17.30;59.70
63277;DHT22;49403;51.046;13.780;2023-06-01T02:44:30;17.30;59.70
63277;DHT22;49403;51.046;13.780;2023-06-01T02:45:01;17.30;59.80
63277;DHT22;49403;51.046;13.780;2023-06-01T02:45:35;17.20;59.80
63277;DHT22;49403;51.046;13.780;2023-06-01T02:46:06;17.20;60.00
63277;DHT22;49403;51.046;13.780;2023-06-01T02:46:37;17.20;60.00
63277;DHT22;49403;51.046;13.780;2023-06-01T02:47:08;17.10;60.00
63277;DHT22;49403;51.046;13.780;2023-06-01T02:47:40;17.10;60.10
63277;DHT22;49403;51.046;13.780;2023-06-01T02:48:12;17.10;60.10
63277;DHT22;49403;51.046;13.780;2023-06-01T02:48:44;17.90;61.00
63277;DHT22;49403;51.046;13.780;2023-06-01T02:49:15;17.10;60.30
63277;DHT22;49403;51.046;13.780;2023-06-01T02:49:47;17.10;60.30
63277;DHT22;49403;51.046;13.780;2023-06-01T02:50:18;17.00;60.30
63277;DHT22;49403;51.046;13.780;2023-06-01T02:50:49;17.00;60.30
63277;DHT22;49403;51.046;13.780;2023-06-01T02:51:21;17.10;60.60
63277;DHT22;49403;51.046;13.780;2023-06-01T02:51:52;17.00;60.50
63277;DHT22;49403;51.046;13.780;2023-06-01T02:52:23;17.00;60.50
63277;DHT22;49403;51.046;13.780;2023-06-01T02:52:54;17.00;60.60
63277;DHT22;49403;51.046;13.780;2023-06-01T02:53:26;17.10;60.60
63277;DHT22;49403;51.046;13.780;2023-06-01T02:53:59;17.00;60.50
63277;DHT22;49403;51.046;13.780;2023-06-01T02:54:30;17.10;60.50
63277;DHT22;49403;51.046;13.780;2023-06-01T02:55:01;17.00;60.40
63277;DHT22;49403;51.046;13.780;2023-06-01T02:55:33;17.30;60.70
63277;DHT22;49403;51.046;13.780;2023-06-01T02:56:04;17.10;60.50
63277;DHT22;49403;51.046;13.780;2023-06-01T02:56:35;17.10;60.50
63277;DHT22;49403;51.046;13.780;2023-06-01T02:57:07;17.10;60.50
63277;DHT22;49403;51.046;13.780;2023-06-01T02:57:38;17.10;60.40
63277;DHT22;49403;51.046;13.780;2023-06-01T02:58:09;17.10;60.40
63277;DHT22;49403;51.046;13.780;2023-06-01T02:58:46;17.10;60.40
63277;DHT22;49403;51.046;13.780;2023-06-01T02:59:18;17.10;60.50
63277;DHT22;49403;51.046;13.780;2023-06-01T02:59:49;17.10;60.60
63277;DHT22;49403;51.046;13.780;2023-06-01T03:00:21;17.00;60.60
63277;DHT22;49403;51.046;13.780;2023-06-01T03:00:53;17.00;60.70
63277;DHT22;49403;51.046;13.780;2023-06-01T03:01:24;17.00;60.80
63277;DHT22;49403;51.046;13.780;2023-06-01T03:01:58;17.00;60.90
63277;DHT22;49403;51.046;13.780;2023-06-01T03:02:30;17.00;61.00
63277;DHT22;49403;51.046;13.780;2023-06-01T03:03:01;16.90;61.00
63277;DHT22;49403;51.046;13.780;2023-06-01T03:03:34;16.90;61.00
63277;DHT22;49403;51.046;13.780;2023-06-01T03:04:05;16.90;61.00
63277;DHT22;49403;51.046;13.780;2023-06-01T03:04:37;16.90;61.10
63277;DHT22;49403;51.046;13.780;2023-06-01T03:05:10;16.90;61.10
63277;DHT22;49403;51.046;13.780;2023-06-01T03:05:45;16.90;61.10
63277;DHT22;49403;51.046;13.780;2023-06-01T03:06:18;16.90;61.10
63277;DHT22;49403;51.046;13.780;2023-06-01T03:06:52;16.90;61.10
63277;DHT22;49403;51.046;13.780;2023-06-01T03:07:23;16.90;61.10
63277;DHT22;49403;51.046;13.780;2023-06-01T03:07:54;16.80;61.10
63277;DHT22;49403;51.046;13.780;2023-06-01T03:08:25;16.90;61.30
63277;DHT22;49403;51.046;13.780;2023-06-01T03:08:57;16.90;61.30
63277;DHT22;49403;51.046;13.780;2023-06-01T03:09:31;16.90;61.40
63277;DHT22;49403;51.046;13.780;2023-06-01T03:10:03;16.90;61.60
63277;DHT22;49403;51.046;13.780;2023-06-01T03:10:34;15.90;60.60
63277;DHT22;49403;51.046;13.780;2023-06-01T03:11:05;16.80;61.50
63277;DHT22;49403;51.046;13.780;2023-06-01T03:11:37;17.30;61.90
63277;DHT22;49403;51.046;13.780;2023-06-01T03:12:08;16.90;61.50
63277;DHT22;49403;51.046;13.780;2023-06-01T03:12:39;16.90;61.50
63277;DHT22;49403;51.046;13.780;2023-06-01T03:13:11;16.90;61.50
63277;DHT22;49403;51.046;13.780;2023-06-01T03:13:43;17.60;62.10
63277;DHT22;49403;51.046;13.780;2023-06-01T03:14:14;16.90;61.30
63277;DHT22;49403;51.046;13.780;2023-06-01T03:14:45;16.90;61.30
63277;DHT22;49403;51.046;13.780;2023-06-01T03:15:16;16.90;61.30
63277;DHT22;49403;51.046;13.780;2023-06-01T03:15:48;17.00;61.30
63277;DHT22;49403;51.046;13.780;2023-06-01T03:16:20;16.90;61.10
63277;DHT22;49403;51.046;13.780;2023-06-01T03:16:52;17.00;61.20
63277;DHT22;49403;51.046;13.780;2023-06-01T03:17:23;17.00;61.10
63277;DHT22;49403;51.046;13.780;2023-06-01T03:17:54;16.90;61.10
63277;DHT22;49403;51.046;13.780;2023-06-01T03:18:26;17.00;61.20
63277;DHT22;49403;51.046;13.780;2023-06-01T03:18:57;17.00;61.10
63277;DHT22;49403;51.046;13.780;2023-06-01T03:19:28;17.00;61.10
63277;DHT22;49403;51.046;13.780;2023-06-01T03:20:03;17.00;61.00
63277;DHT22;49403;51.046;13.780;2023-06-01T03:20:38;17.00;61.10
63277;DHT22;49403;51.046;13.780;2023-06-01T03:21:09;17.00;61.20
63277;DHT22;49403;51.046;13.780;2023-06-01T03:21:40;17.00;61.10
63277;DHT22;49403;51.046;13.780;2023-06-01T03:22:14;17.00;61.00
63277;DHT22;49403;51.046;13.780;2023-06-01T03:22:46;16.90;60.90
63277;DHT22;49403;51.046;13.780;2023-06-01T03:23:17;17.00;61.00
63277;DHT22;49403;51.046;13.780;2023-06-01T03:23:48;17.00;61.00
63277;DHT22;49403;51.046;13.780;2023-06-01T03:24:20;17.00;60.90
63277;DHT22;49403;51.046;13.780;2023-06-01T03:24:54;17.00;61.00
63277;DHT22;49403;51.046;13.780;2023-06-01T03:25:25;17.00;61.80
63277;DHT22;49403;51.046;13.780;2023-06-01T03:25:56;17.00;61.00
63277;DHT22;49403;51.046;13.780;2023-06-01T03:26:28;17.00;61.00
63277;DHT22;49403;51.046;13.780;2023-06-01T03:26:59;17.10;61.10
63277;DHT22;49403;51.046;13.780;2023-06-01T03:27:31;17.00;60.80
63277;DHT22;49403;51.046;13.780;2023-06-01T03:28:03;17.00;60.70
63277;DHT22;49403;51.046;13.780;2023-06-01T03:28:34;17.00;60.60
63277;DHT22;49403;51.046;13.780;2023-06-01T03:29:05;17.00;60.70
63277;DHT22;49403;51.046;13.780;2023-06-01T03:29:37;17.00;60.60
63277;DHT22;49403;51.046;13.780;2023-06-01T03:30:08;17.00;60.70
63277;DHT22;49403;51.046;13.780;2023-06-01T03:30:43;17.00;60.80
63277;DHT22;49403;51.046;13.780;2023-06-01T03:31:14;17.70;61.60
63277;DHT22;49403;51.046;13.780;2023-06-01T03:31:46;16.90;60.90
63277;DHT22;49403;51.046;13.780;2023-06-01T03:32:17;16.90;61.00
63277;DHT22;49403;51.046;13.780;2023-06-01T03:32:48;16.80;61.00
63277;DHT22;49403;51.046;13.780;2023-06-01T03:33:20;16.80;61.10
63277;DHT22;49403;51.046;13.780;2023-06-01T03:33:51;16.80;61.20
63277;DHT22;49403;51.046;13.780;2023-06-01T03:34:23;16.80;61.30
63277;DHT22;49403;51.046;13.780;2023-06-01T03:34:54;16.80;61.40
63277;DHT22;49403;51.046;13.780;2023-06-01T03:35:26;16.80;61.40
63277;DHT22;49403;51.046;13.780;2023-06-01T03:35:57;16.70;61.40
63277;DHT22;49403;51.046;13.780;2023-06-01T03:36:28;16.80;62.20
63277;DHT22;49403;51.046;13.780;2023-06-01T03:37:05;16.80;61.40
63277;DHT22;49403;51.046;13.780;2023-06-01T03:37:40;16.80;61.40
63277;DHT22;49403;51.046;13.780;2023-06-01T03:38:12;16.80;61.20
63277;DHT22;49403;51.046;13.780;2023-06-01T03:38:43;16.70;61.20
63277;DHT22;49403;51.046;13.780;2023-06-01T03:39:15;16.80;61.20